createdAt,value
2023-02-05T00:01:36.100Z,103714.94
2023-02-05T00:04:06.303Z,103718.56
2023-02-05T00:06:33.288Z,103716.34
2023-02-05T00:09:00.315Z,103700.28
2023-02-05T00:11:30.443Z,103682.22
2023-02-05T00:13:57.448Z,103678.72
2023-02-05T00:16:25.732Z,103676.44
2023-02-05T00:18:53.907Z,103680.97
2023-02-05T00:21:23.326Z,103682.94
2023-02-05T00:23:51.492Z,103656.34
2023-02-05T00:26:18.756Z,103656.59
2023-02-05T00:28:46.459Z,103648.66
2023-02-05T00:31:20.391Z,103638.91
2023-02-05T00:33:49.167Z,103641.44
2023-02-05T00:36:16.845Z,103642.19
2023-02-05T00:38:45.411Z,103647.28
2023-02-05T00:41:13.317Z,103652.81
2023-02-05T00:43:41.303Z,103643.56
2023-02-05T00:46:08.608Z,103624.06
2023-02-05T00:48:35.945Z,103611.72
2023-02-05T00:51:03.290Z,103619.25
2023-02-05T00:53:30.210Z,103604.91
2023-02-05T00:55:57.472Z,103607.56
2023-02-05T00:58:24.714Z,103609.66
2023-02-05T01:00:52.162Z,103607.16
2023-02-05T01:03:20.189Z,103625.13
2023-02-05T01:05:46.997Z,103608.28
2023-02-05T01:08:15.165Z,103599.13
2023-02-05T01:10:47.192Z,103597.00
2023-02-05T01:13:16.344Z,103599.22
2023-02-05T01:15:44.659Z,103586.72
2023-02-05T01:18:11.545Z,103581.09
2023-02-05T01:20:40.246Z,103568.16
2023-02-05T01:23:14.821Z,103577.91
2023-02-05T01:25:41.684Z,103563.09
2023-02-05T01:28:08.604Z,103557.78
2023-02-05T01:30:36.328Z,103555.66
2023-02-05T01:33:04.353Z,103569.47
2023-02-05T01:35:32.163Z,103561.16
2023-02-05T01:37:59.038Z,103565.81
2023-02-05T01:40:26.162Z,103564.88
2023-02-05T01:42:53.060Z,103559.72
2023-02-05T01:45:22.676Z,103560.66
2023-02-05T01:47:51.030Z,103557.38
2023-02-05T01:50:22.403Z,103553.75
2023-02-05T01:52:49.916Z,103558.06
2023-02-05T01:55:17.561Z,103561.44
2023-02-05T01:57:45.746Z,103558.91
2023-02-05T02:00:12.915Z,103557.28
2023-02-05T02:02:39.696Z,103566.44
2023-02-05T02:05:15.346Z,103567.22
2023-02-05T02:07:42.650Z,103554.59
2023-02-05T02:10:14.872Z,103555.31
2023-02-05T02:12:45.863Z,103568.78
2023-02-05T02:15:17.040Z,103558.22
2023-02-05T02:17:47.739Z,103570.75
2023-02-05T02:20:22.108Z,103567.38
2023-02-05T02:22:54.880Z,103571.34
2023-02-05T02:25:47.316Z,103559.44
2023-02-05T02:28:21.562Z,103550.81
2023-02-05T02:31:23.770Z,103541.53
2023-02-05T02:34:01.238Z,103546.88
2023-02-05T02:36:46.934Z,103550.63
2023-02-05T02:39:26.371Z,103548.94
2023-02-05T02:42:04.846Z,103547.97
2023-02-05T02:44:47.721Z,103545.75
2023-02-05T02:47:19.052Z,103542.19
2023-02-05T02:49:53.264Z,103547.63
2023-02-05T02:52:23.268Z,103549.34
2023-02-05T02:54:53.949Z,103549.63
2023-02-05T02:57:26.480Z,103544.41
2023-02-05T02:59:56.682Z,103542.03
2023-02-05T03:02:24.966Z,103540.19
2023-02-05T03:05:04.170Z,103546.50
2023-02-05T03:07:39.170Z,103533.06
2023-02-05T03:10:27.820Z,103527.44
2023-02-05T03:12:56.034Z,103522.09
2023-02-05T03:15:23.141Z,103519.06
2023-02-05T03:17:52.661Z,103505.88
2023-02-05T03:20:59.131Z,103516.97
2023-02-05T03:23:30.649Z,103510.50
2023-02-05T03:25:57.676Z,103502.31
2023-02-05T03:28:27.402Z,103495.28
2023-02-05T03:31:09.903Z,103490.69
2023-02-05T03:33:56.971Z,103492.41
2023-02-05T03:36:40.820Z,103484.13
2023-02-05T03:39:25.086Z,103479.25
2023-02-05T03:42:18.052Z,103479.16
2023-02-05T03:45:06.357Z,103471.81
2023-02-05T03:47:45.143Z,103459.00
2023-02-05T03:50:33.332Z,103447.91
2023-02-05T03:53:12.475Z,103458.84
2023-02-05T03:55:46.916Z,103454.53
2023-02-05T03:58:39.881Z,103465.81
2023-02-05T04:01:08.969Z,103462.09
2023-02-05T04:03:35.990Z,103466.50
2023-02-05T04:06:03.858Z,103461.78
2023-02-05T04:08:30.775Z,103467.09
2023-02-05T04:10:57.730Z,103466.69
2023-02-05T04:13:24.715Z,103466.31
2023-02-05T04:15:52.092Z,103462.00
2023-02-05T04:18:19.201Z,103462.31
2023-02-05T04:20:45.988Z,103453.78
2023-02-05T04:23:13.255Z,103453.47
2023-02-05T04:25:41.002Z,103442.78
2023-02-05T04:28:08.129Z,103432.34
2023-02-05T04:30:35.174Z,103427.47
2023-02-05T04:33:02.178Z,103423.06
2023-02-05T04:35:29.174Z,103417.91
2023-02-05T04:37:56.227Z,103411.06
2023-02-05T04:40:23.264Z,103400.00
2023-02-05T04:42:49.963Z,103397.59
2023-02-05T04:45:16.823Z,103394.19
2023-02-05T04:47:43.692Z,103396.56
2023-02-05T04:50:10.880Z,103397.44
2023-02-05T04:52:37.722Z,103394.44
2023-02-05T04:55:04.798Z,103391.69
2023-02-05T04:57:34.428Z,103384.84
2023-02-05T05:00:01.542Z,103372.50
2023-02-05T05:02:28.502Z,103360.44
2023-02-05T05:04:55.351Z,103353.91
2023-02-05T05:07:22.512Z,103364.47
2023-02-05T05:09:51.015Z,103355.47
2023-02-05T05:12:19.190Z,103354.63
2023-02-05T05:14:46.148Z,103362.66
2023-02-05T05:17:14.912Z,103358.63
2023-02-05T05:19:41.912Z,103369.25
2023-02-05T05:22:08.876Z,103368.28
2023-02-05T05:24:35.826Z,103363.69
2023-02-05T05:27:02.713Z,103361.78
2023-02-05T05:29:29.956Z,103366.38
2023-02-05T05:31:56.835Z,103374.69
2023-02-05T05:34:23.824Z,103375.47
2023-02-05T05:36:50.802Z,103381.50
2023-02-05T05:39:36.529Z,103396.06
2023-02-05T05:42:22.374Z,103390.38
2023-02-05T05:44:52.419Z,103383.22
2023-02-05T05:47:19.882Z,103375.19
2023-02-05T05:49:47.446Z,103373.06
2023-02-05T05:52:14.690Z,103363.47
2023-02-05T05:54:42.550Z,103347.94
2023-02-05T05:57:09.564Z,103341.25
2023-02-05T05:59:36.688Z,103332.84
2023-02-05T06:02:04.570Z,103320.81
2023-02-05T06:04:31.912Z,103325.88
2023-02-05T06:06:59.599Z,103320.59
2023-02-05T06:09:26.732Z,103322.31
2023-02-05T06:11:53.786Z,103317.06
2023-02-05T06:14:20.789Z,103319.63
2023-02-05T06:16:47.594Z,103326.38
2023-02-05T06:19:14.731Z,103317.97
2023-02-05T06:21:41.699Z,103323.16
2023-02-05T06:24:08.653Z,103322.47
2023-02-05T06:26:35.748Z,103310.75
2023-02-05T06:29:03.601Z,103315.22
2023-02-05T06:31:33.609Z,103328.69
2023-02-05T06:34:01.618Z,103326.63
2023-02-05T06:36:28.546Z,103327.06
2023-02-05T06:38:58.000Z,103325.66
2023-02-05T06:41:25.027Z,103326.06
2023-02-05T06:43:52.032Z,103326.81
2023-02-05T06:46:18.723Z,103325.75
2023-02-05T06:48:45.781Z,103322.59
2023-02-05T06:51:13.704Z,103324.16
2023-02-05T06:53:40.755Z,103330.50
2023-02-05T06:56:07.988Z,103327.25
2023-02-05T06:58:36.944Z,103325.78
2023-02-05T07:01:03.997Z,103331.06
2023-02-05T07:03:30.650Z,103333.72
2023-02-05T07:06:02.719Z,103336.13
2023-02-05T07:08:29.774Z,103335.28
2023-02-05T07:10:56.761Z,103328.00
2023-02-05T07:13:23.792Z,103331.25
2023-02-05T07:15:50.874Z,103333.53
2023-02-05T07:18:17.640Z,103323.19
2023-02-05T07:20:44.605Z,103322.47
2023-02-05T07:23:11.642Z,103326.66
2023-02-05T07:25:38.756Z,103330.19
2023-02-05T07:28:07.511Z,103332.56
2023-02-05T07:30:36.629Z,103339.28
2023-02-05T07:33:04.124Z,103350.84
2023-02-05T07:35:32.924Z,103342.34
2023-02-05T07:38:00.409Z,103336.41
2023-02-05T07:40:27.417Z,103339.34
2023-02-05T07:42:54.197Z,103331.03
2023-02-05T07:45:21.180Z,103341.13
2023-02-05T07:47:50.756Z,103337.69
2023-02-05T07:50:17.986Z,103339.00
2023-02-05T07:52:44.823Z,103335.78
2023-02-05T07:55:12.081Z,103332.13
2023-02-05T07:57:38.919Z,103342.47
2023-02-05T08:00:06.897Z,103343.25
2023-02-05T08:02:33.951Z,103345.50
2023-02-05T08:05:00.930Z,103357.63
2023-02-05T08:07:27.978Z,103347.44
2023-02-05T08:09:54.977Z,103356.16
2023-02-05T08:12:24.581Z,103361.16
2023-02-05T08:14:52.878Z,103350.06
2023-02-05T08:17:19.951Z,103353.69
2023-02-05T08:19:46.959Z,103351.56
2023-02-05T08:22:13.931Z,103349.63
2023-02-05T08:24:40.859Z,103351.09
2023-02-05T08:27:08.018Z,103355.06
2023-02-05T08:29:34.976Z,103362.00
2023-02-05T08:32:04.872Z,103360.09
2023-02-05T08:34:31.691Z,103369.03
2023-02-05T08:36:59.969Z,103374.19
2023-02-05T08:39:27.255Z,103364.81
2023-02-05T08:41:56.877Z,103370.97
2023-02-05T08:44:25.740Z,103370.56
2023-02-05T08:46:52.555Z,103382.72
2023-02-05T08:49:19.462Z,103386.56
2023-02-05T08:51:46.799Z,103386.97
2023-02-05T08:54:15.331Z,103383.88
2023-02-05T08:56:44.330Z,103389.44
2023-02-05T08:59:12.392Z,103387.94
2023-02-05T09:01:43.174Z,103389.69
2023-02-05T09:04:15.201Z,103397.19
2023-02-05T09:06:42.833Z,103393.00
2023-02-05T09:09:10.269Z,103395.03
2023-02-05T09:11:37.611Z,103395.88
2023-02-05T09:14:04.870Z,103399.88
2023-02-05T09:16:34.302Z,103399.91
2023-02-05T09:19:01.919Z,103398.03
2023-02-05T09:21:28.860Z,103404.03
2023-02-05T09:23:56.172Z,103399.75
2023-02-05T09:26:23.790Z,103396.56
2023-02-05T09:28:50.792Z,103402.06
2023-02-05T09:31:20.336Z,103397.53
2023-02-05T09:33:47.444Z,103401.41
2023-02-05T09:36:17.294Z,103396.56
2023-02-05T09:38:45.979Z,103400.44
2023-02-05T09:41:13.013Z,103400.22
2023-02-05T09:43:57.986Z,103408.09
2023-02-05T09:46:28.251Z,103404.03
2023-02-05T09:49:22.389Z,103401.53
2023-02-05T09:51:58.646Z,103405.53
2023-02-05T09:54:37.028Z,103405.84
2023-02-05T09:57:15.050Z,103407.56
2023-02-05T09:59:47.087Z,103407.56
2023-02-05T10:02:30.076Z,103407.03
2023-02-05T10:04:57.251Z,103405.00
2023-02-05T10:07:44.391Z,103418.19
2023-02-05T10:10:24.816Z,103421.31
2023-02-05T10:13:03.845Z,103418.97
2023-02-05T10:15:58.453Z,103415.38
2023-02-05T10:18:34.781Z,103427.88
2023-02-05T10:21:19.985Z,103429.91
2023-02-05T10:24:12.325Z,103423.25
2023-02-05T10:26:54.307Z,103417.50
2023-02-05T10:29:49.689Z,103417.72
2023-02-05T10:32:24.924Z,103421.47
2023-02-05T10:35:04.266Z,103417.56
2023-02-05T10:37:38.225Z,103429.22
2023-02-05T10:40:16.744Z,103425.78
2023-02-05T10:43:26.818Z,103430.47
2023-02-05T10:45:55.696Z,103428.69
2023-02-05T10:48:51.242Z,103437.19
2023-02-05T10:51:29.626Z,103439.22
2023-02-05T10:53:58.353Z,103447.84
2023-02-05T10:56:25.185Z,103459.34
2023-02-05T10:59:02.814Z,103453.41
2023-02-05T11:01:36.216Z,103442.84
2023-02-05T11:04:15.585Z,103449.25
2023-02-05T11:06:48.909Z,103454.59
2023-02-05T11:09:24.928Z,103454.00
2023-02-05T11:11:53.934Z,103440.75
2023-02-05T11:14:34.738Z,103435.72
2023-02-05T11:17:22.779Z,103435.91
2023-02-05T11:19:59.296Z,103438.84
2023-02-05T11:22:35.511Z,103441.63
2023-02-05T11:25:19.243Z,103442.91
2023-02-05T11:28:06.846Z,103446.91
2023-02-05T11:30:53.688Z,103457.63
2023-02-05T11:33:23.365Z,103463.97
2023-02-05T11:36:03.164Z,103462.34
2023-02-05T11:38:53.605Z,103462.34
2023-02-05T11:41:31.862Z,103457.28
2023-02-05T11:44:01.939Z,103462.66
2023-02-05T11:46:34.198Z,103455.81
2023-02-05T11:49:05.322Z,103460.09
2023-02-05T11:51:34.940Z,103454.28
2023-02-05T11:54:07.848Z,103474.19
2023-02-05T11:56:34.872Z,103483.44
2023-02-05T11:59:05.796Z,103474.19
2023-02-05T12:01:35.037Z,103488.56
2023-02-05T12:04:19.157Z,103488.81
2023-02-05T12:07:10.770Z,103482.47
2023-02-05T12:09:37.927Z,103485.78
2023-02-05T12:12:34.169Z,103486.84
2023-02-05T12:15:00.871Z,103487.50
2023-02-05T12:17:50.332Z,103472.44
2023-02-05T12:20:39.211Z,103463.00
2023-02-05T12:23:32.107Z,103449.88
2023-02-05T12:26:30.968Z,103438.41
2023-02-05T12:29:05.032Z,103437.81
2023-02-05T12:31:56.827Z,103437.38
2023-02-05T12:34:59.299Z,103439.28
2023-02-05T12:38:00.387Z,103451.59
2023-02-05T12:40:43.350Z,103462.56
2023-02-05T12:43:28.919Z,103465.69
2023-02-05T12:46:02.530Z,103469.41
2023-02-05T12:49:10.871Z,103478.78
2023-02-05T12:52:14.850Z,103478.84
2023-02-05T12:54:50.663Z,103485.75
2023-02-05T12:57:23.874Z,103489.63
2023-02-05T13:00:03.999Z,103491.78
2023-02-05T13:02:48.218Z,103477.66
2023-02-05T13:05:29.987Z,103469.41
2023-02-05T13:08:39.578Z,103474.78
2023-02-05T13:11:17.616Z,103495.84
2023-02-05T13:13:59.199Z,103500.22
2023-02-05T13:16:37.997Z,103506.81
2023-02-05T13:19:39.581Z,103508.53
2023-02-05T13:22:38.642Z,103503.72
2023-02-05T13:25:38.226Z,103507.72
2023-02-05T13:28:40.966Z,103509.66
2023-02-05T13:31:42.428Z,103509.31
2023-02-05T13:34:13.385Z,103499.88
2023-02-05T13:36:48.811Z,103505.63
2023-02-05T13:39:33.794Z,103522.66
2023-02-05T13:42:42.567Z,103514.47
2023-02-05T13:45:41.343Z,103526.13
2023-02-05T13:48:45.886Z,103538.66
2023-02-05T13:51:35.816Z,103541.00
2023-02-05T13:54:24.243Z,103528.59
2023-02-05T13:57:32.710Z,103532.09
2023-02-05T14:00:01.423Z,103520.63
2023-02-05T14:02:39.594Z,103515.59
2023-02-05T14:05:07.812Z,103521.31
2023-02-05T14:07:43.516Z,103522.72
2023-02-05T14:10:33.076Z,103531.25
2023-02-05T14:13:34.549Z,103537.31
2023-02-05T14:16:36.388Z,103530.72
2023-02-05T14:19:15.882Z,103516.69
2023-02-05T14:21:45.537Z,103521.13
2023-02-05T14:24:46.407Z,103530.81
2023-02-05T14:27:34.318Z,103537.41
2023-02-05T14:30:42.721Z,103545.63
2023-02-05T14:33:42.526Z,103556.78
2023-02-05T14:36:18.664Z,103558.69
2023-02-05T14:39:01.255Z,103564.38
2023-02-05T14:41:36.001Z,103553.28
2023-02-05T14:44:12.014Z,103564.06
2023-02-05T14:46:46.512Z,103570.22
2023-02-05T14:49:38.250Z,103580.00
2023-02-05T14:52:28.057Z,103589.56
2023-02-05T14:55:01.344Z,103588.28
2023-02-05T14:57:50.006Z,103591.47
2023-02-05T15:00:31.460Z,103596.38
2023-02-05T15:03:17.050Z,103584.59
2023-02-05T15:05:50.351Z,103586.31
2023-02-05T15:08:22.380Z,103585.53
2023-02-05T15:10:54.997Z,103569.53
2023-02-05T15:13:22.675Z,103574.47
2023-02-05T15:16:13.242Z,103572.09
2023-02-05T15:18:41.617Z,103573.22
2023-02-05T15:21:31.679Z,103591.00
2023-02-05T15:24:27.114Z,103585.91
2023-02-05T15:27:14.757Z,103595.47
2023-02-05T15:29:57.510Z,103603.28
2023-02-05T15:32:39.434Z,103601.97
2023-02-05T15:35:13.546Z,103601.84
2023-02-05T15:37:50.537Z,103590.53
2023-02-05T15:40:35.116Z,103604.97
2023-02-05T15:43:20.608Z,103613.53
2023-02-05T15:45:48.012Z,103620.56
2023-02-05T15:48:19.173Z,103611.84
2023-02-05T15:50:51.851Z,103611.09
2023-02-05T15:53:43.339Z,103607.72
2023-02-05T15:56:23.934Z,103624.03
2023-02-05T15:58:59.012Z,103618.66
2023-02-05T16:01:39.161Z,103638.91
2023-02-05T16:04:34.209Z,103627.91
2023-02-05T16:07:02.308Z,103626.53
2023-02-05T16:09:35.120Z,103619.09
2023-02-05T16:12:14.872Z,103619.44
2023-02-05T16:14:41.721Z,103639.34
2023-02-05T16:17:11.514Z,103639.47
2023-02-05T16:20:04.068Z,103650.09
2023-02-05T16:22:49.585Z,103653.53
2023-02-05T16:25:33.316Z,103650.97
2023-02-05T16:28:07.471Z,103656.34
2023-02-05T16:30:43.038Z,103659.25
2023-02-05T16:33:42.527Z,103666.03
2023-02-05T16:36:19.861Z,103680.91
2023-02-05T16:38:53.916Z,103677.00
2023-02-05T16:41:27.599Z,103684.66
2023-02-05T16:44:01.317Z,103685.19
2023-02-05T16:46:30.869Z,103675.72
2023-02-05T16:49:03.633Z,103676.47
2023-02-05T16:51:36.635Z,103678.50
2023-02-05T16:54:31.378Z,103681.31
2023-02-05T16:57:16.231Z,103680.25
2023-02-05T16:59:53.566Z,103680.00
2023-02-05T17:02:29.482Z,103692.28
2023-02-05T17:04:59.933Z,103695.72
2023-02-05T17:07:27.533Z,103701.88
2023-02-05T17:10:09.406Z,103705.19
2023-02-05T17:12:39.681Z,103714.09
2023-02-05T17:15:15.395Z,103722.72
2023-02-05T17:17:57.089Z,103723.81
2023-02-05T17:20:28.676Z,103719.16
2023-02-05T17:23:03.429Z,103724.25
2023-02-05T17:25:58.742Z,103728.31
2023-02-05T17:28:27.657Z,103720.91
2023-02-05T17:31:02.844Z,103725.88
2023-02-05T17:33:30.059Z,103733.38
2023-02-05T17:35:57.102Z,103733.81
2023-02-05T17:38:24.075Z,103739.09
2023-02-05T17:41:11.128Z,103740.16
2023-02-05T17:43:39.378Z,103750.91
2023-02-05T17:46:17.065Z,103751.03
2023-02-05T17:48:44.873Z,103741.22
2023-02-05T17:51:21.226Z,103753.84
2023-02-05T17:53:49.137Z,103756.63
2023-02-05T17:56:16.305Z,103758.44
2023-02-05T17:58:43.122Z,103765.78
2023-02-05T18:01:12.151Z,103761.78
2023-02-05T18:03:39.487Z,103758.97
2023-02-05T18:06:07.186Z,103756.28
2023-02-05T18:08:37.391Z,103758.78
2023-02-05T18:11:04.403Z,103752.75
2023-02-05T18:13:31.467Z,103762.44
2023-02-05T18:16:03.457Z,103765.56
2023-02-05T18:18:31.911Z,103758.38
2023-02-05T18:20:59.352Z,103766.50
2023-02-05T18:23:29.184Z,103769.00
2023-02-05T18:25:57.643Z,103759.84
2023-02-05T18:28:25.138Z,103767.69
2023-02-05T18:31:04.565Z,103768.25
2023-02-05T18:33:31.793Z,103761.06
2023-02-05T18:36:04.314Z,103761.59
2023-02-05T18:38:32.033Z,103767.28
2023-02-05T18:41:07.734Z,103765.66
2023-02-05T18:43:36.710Z,103771.91
2023-02-05T18:46:11.886Z,103775.25
2023-02-05T18:48:43.840Z,103783.13
2023-02-05T18:51:12.788Z,103777.75
2023-02-05T18:53:40.842Z,103772.56
2023-02-05T18:56:09.890Z,103776.13
2023-02-05T18:58:37.040Z,103783.72
2023-02-05T19:01:12.459Z,103784.16
2023-02-05T19:03:41.535Z,103785.94
2023-02-05T19:06:09.744Z,103784.09
2023-02-05T19:08:37.576Z,103795.66
2023-02-05T19:11:13.598Z,103796.66
2023-02-05T19:13:41.016Z,103803.94
2023-02-05T19:16:16.396Z,103806.63
2023-02-05T19:18:45.346Z,103802.97
2023-02-05T19:21:17.688Z,103810.31
2023-02-05T19:23:49.078Z,103823.25
2023-02-05T19:26:21.723Z,103827.78
2023-02-05T19:28:56.920Z,103837.75
2023-02-05T19:31:26.353Z,103832.75
2023-02-05T19:33:53.453Z,103834.28
2023-02-05T19:36:20.518Z,103830.75
2023-02-05T19:38:47.405Z,103839.88
2023-02-05T19:41:19.636Z,103843.28
2023-02-05T19:43:51.983Z,103848.41
2023-02-05T19:46:21.492Z,103842.84
2023-02-05T19:48:49.450Z,103845.63
2023-02-05T19:51:17.905Z,103845.13
2023-02-05T19:53:45.681Z,103863.72
2023-02-05T19:56:23.413Z,103861.72
2023-02-05T19:58:53.969Z,103862.84
2023-02-05T20:01:27.248Z,103860.84
2023-02-05T20:03:59.822Z,103857.19
2023-02-05T20:06:29.435Z,103855.75
2023-02-05T20:08:57.220Z,103853.88
2023-02-05T20:11:24.049Z,103852.16
2023-02-05T20:13:50.872Z,103843.34
2023-02-05T20:16:21.218Z,103832.69
2023-02-05T20:18:56.828Z,103836.03
2023-02-05T20:21:26.856Z,103837.56
2023-02-05T20:23:54.403Z,103838.09
2023-02-05T20:26:24.420Z,103829.94
2023-02-05T20:29:15.282Z,103839.09
2023-02-05T20:31:45.707Z,103844.31
2023-02-05T20:34:18.875Z,103853.50
2023-02-05T20:36:51.478Z,103853.41
2023-02-05T20:39:19.398Z,103861.25
2023-02-05T20:41:48.460Z,103865.97
2023-02-05T20:44:16.339Z,103856.72
2023-02-05T20:46:43.799Z,103857.84
2023-02-05T20:49:11.337Z,103860.09
2023-02-05T20:51:38.736Z,103862.00
2023-02-05T20:54:06.162Z,103867.53
2023-02-05T20:56:33.955Z,103863.31
2023-02-05T20:59:05.325Z,103866.34
2023-02-05T21:01:34.274Z,103872.91
2023-02-05T21:04:03.991Z,103863.13
2023-02-05T21:06:33.200Z,103865.03
2023-02-05T21:09:00.542Z,103869.59
2023-02-05T21:11:29.514Z,103880.31
2023-02-05T21:13:56.832Z,103873.13
2023-02-05T21:16:25.244Z,103868.91
2023-02-05T21:18:53.890Z,103872.09
2023-02-05T21:21:29.635Z,103867.34
2023-02-05T21:24:02.133Z,103869.06
2023-02-05T21:26:57.217Z,103883.81
2023-02-05T21:29:23.948Z,103874.06
2023-02-05T21:31:54.082Z,103875.59
2023-02-05T21:34:24.007Z,103883.50
2023-02-05T21:36:51.772Z,103882.69
2023-02-05T21:39:22.441Z,103886.09
2023-02-05T21:41:54.480Z,103882.50
2023-02-05T21:44:21.689Z,103895.09
2023-02-05T21:46:48.818Z,103887.66
2023-02-05T21:49:15.778Z,103894.63
2023-02-05T21:51:42.889Z,103889.72
2023-02-05T21:54:11.214Z,103895.34
2023-02-05T21:56:41.204Z,103906.13
2023-02-05T21:59:08.824Z,103907.94
2023-02-05T22:01:38.161Z,103909.75
2023-02-05T22:04:12.316Z,103916.22
2023-02-05T22:06:39.938Z,103919.66
2023-02-05T22:09:09.393Z,103911.00
2023-02-05T22:11:37.146Z,103919.13
2023-02-05T22:14:03.997Z,103916.38
2023-02-05T22:16:32.759Z,103915.59
2023-02-05T22:19:01.582Z,103925.59
2023-02-05T22:21:34.003Z,103927.31
2023-02-05T22:24:02.543Z,103923.94
2023-02-05T22:26:35.174Z,103922.19
2023-02-05T22:29:04.855Z,103920.38
2023-02-05T22:31:32.236Z,103912.59
2023-02-05T22:33:59.796Z,103914.75
2023-02-05T22:36:30.057Z,103914.78
2023-02-05T22:38:59.454Z,103915.13
2023-02-05T22:41:31.896Z,103916.16
2023-02-05T22:43:59.976Z,103920.00
2023-02-05T22:46:30.113Z,103914.56
2023-02-05T22:48:59.663Z,103920.91
2023-02-05T22:51:39.077Z,103912.59
2023-02-05T22:54:08.062Z,103923.75
2023-02-05T22:56:38.359Z,103924.94
2023-02-05T22:59:05.302Z,103924.88
2023-02-05T23:01:35.013Z,103927.53
2023-02-05T23:04:04.234Z,103932.81
2023-02-05T23:06:34.297Z,103936.41
2023-02-05T23:09:09.987Z,103935.56
2023-02-05T23:11:37.410Z,103926.91
2023-02-05T23:14:06.130Z,103930.50
2023-02-05T23:16:39.545Z,103918.00
2023-02-05T23:19:09.638Z,103924.38
2023-02-05T23:21:38.708Z,103925.47
2023-02-05T23:24:05.853Z,103934.69
2023-02-05T23:26:38.624Z,103934.84
2023-02-05T23:29:06.450Z,103943.66
2023-02-05T23:31:33.766Z,103933.81
2023-02-05T23:34:02.973Z,103935.69
2023-02-05T23:36:29.799Z,103936.03
2023-02-05T23:38:56.659Z,103944.19
2023-02-05T23:41:36.491Z,103929.97
2023-02-05T23:44:25.410Z,103925.75
2023-02-05T23:46:52.906Z,103912.47
2023-02-05T23:49:24.199Z,103921.53
2023-02-05T23:51:54.312Z,103921.69
2023-02-05T23:54:22.798Z,103927.81
2023-02-05T23:56:53.413Z,103925.22
2023-02-05T23:59:20.303Z,103923.72
